createdAt,value
2023-05-17T00:02:23.150Z,16.10
2023-05-17T00:04:49.971Z,16.10
2023-05-17T00:07:17.029Z,16.10
2023-05-17T00:09:43.822Z,16.11
2023-05-17T00:12:11.140Z,16.10
2023-05-17T00:14:37.964Z,16.10
2023-05-17T00:17:07.152Z,16.09
2023-05-17T00:19:34.125Z,16.10
2023-05-17T00:22:00.973Z,16.09
2023-05-17T00:24:27.904Z,16.08
2023-05-17T00:26:54.703Z,16.08
2023-05-17T00:29:21.459Z,16.09
2023-05-17T00:31:48.192Z,16.10
2023-05-17T00:34:15.032Z,16.10
2023-05-17T00:36:41.874Z,16.11
2023-05-17T00:39:09.024Z,16.12
2023-05-17T00:41:36.342Z,16.13
2023-05-17T00:44:03.138Z,16.14
2023-05-17T00:46:29.969Z,16.15
2023-05-17T00:48:56.790Z,16.15
2023-05-17T00:51:23.715Z,16.16
2023-05-17T00:53:50.654Z,16.17
2023-05-17T00:56:17.464Z,16.18
2023-05-17T00:58:44.258Z,16.20
2023-05-17T01:01:11.042Z,16.21
2023-05-17T01:03:38.323Z,16.24
2023-05-17T01:06:05.826Z,16.28
2023-05-17T01:08:33.919Z,16.30
2023-05-17T01:11:03.132Z,16.33
2023-05-17T01:13:57.661Z,16.36
2023-05-17T01:16:40.950Z,16.38
2023-05-17T01:19:35.542Z,16.40
2023-05-17T01:22:25.061Z,16.42
2023-05-17T01:25:29.296Z,16.45
2023-05-17T01:28:06.375Z,16.47
2023-05-17T01:30:33.273Z,16.49
2023-05-17T01:33:00.143Z,16.51
2023-05-17T01:35:27.365Z,16.53
2023-05-17T01:37:54.514Z,16.53
2023-05-17T01:40:21.330Z,16.53
2023-05-17T01:42:53.272Z,16.56
2023-05-17T01:45:36.741Z,16.57
2023-05-17T01:48:23.971Z,16.58
2023-05-17T01:50:51.648Z,16.60
2023-05-17T01:53:21.300Z,16.60
2023-05-17T01:55:50.829Z,16.60
2023-05-17T01:59:34.210Z,16.62
2023-05-17T02:02:06.333Z,16.61
2023-05-17T02:04:33.280Z,16.61
2023-05-17T02:07:02.700Z,16.60
2023-05-17T02:09:29.727Z,16.60
2023-05-17T02:11:57.110Z,16.59
2023-05-17T02:14:23.925Z,16.58
2023-05-17T02:16:50.991Z,16.57
2023-05-17T02:19:18.007Z,16.54
2023-05-17T02:21:45.024Z,16.50
2023-05-17T02:24:11.949Z,16.45
2023-05-17T02:26:42.856Z,16.42
2023-05-17T02:29:13.225Z,16.39
2023-05-17T02:31:40.196Z,16.37
2023-05-17T02:34:07.160Z,16.36
2023-05-17T02:36:34.032Z,16.35
2023-05-17T02:39:01.383Z,16.34
2023-05-17T02:41:28.230Z,16.33
2023-05-17T02:43:55.095Z,16.31
2023-05-17T02:46:22.221Z,16.30
2023-05-17T02:48:49.001Z,16.27
2023-05-17T02:51:15.953Z,16.25
2023-05-17T02:53:43.226Z,16.24
2023-05-17T02:56:10.249Z,16.22
2023-05-17T02:58:37.444Z,16.20
2023-05-17T03:01:04.385Z,16.19
2023-05-17T03:03:31.745Z,16.16
2023-05-17T03:06:02.667Z,16.12
2023-05-17T03:08:30.044Z,16.10
2023-05-17T03:10:57.501Z,16.07
2023-05-17T03:13:24.709Z,16.04
2023-05-17T03:15:51.524Z,16.01
2023-05-17T03:18:18.506Z,16.01
2023-05-17T03:20:45.644Z,16.01
2023-05-17T03:23:12.772Z,16.04
2023-05-17T03:25:59.834Z,16.06
2023-05-17T03:28:28.334Z,16.07
2023-05-17T03:30:55.766Z,16.08
2023-05-17T03:33:23.006Z,16.10
2023-05-17T03:35:50.052Z,16.12
2023-05-17T03:38:17.091Z,16.14
2023-05-17T03:40:44.177Z,16.17
2023-05-17T03:43:10.973Z,16.20
2023-05-17T03:45:37.922Z,16.24
2023-05-17T03:48:06.444Z,16.29
2023-05-17T03:50:33.428Z,16.32
2023-05-17T03:53:01.266Z,16.34
2023-05-17T03:55:28.351Z,16.36
2023-05-17T03:57:55.450Z,16.37
2023-05-17T04:00:22.397Z,16.39
2023-05-17T04:02:49.231Z,16.40
2023-05-17T04:05:18.442Z,16.41
2023-05-17T04:07:45.872Z,16.41
2023-05-17T04:10:13.029Z,16.42
2023-05-17T04:12:39.899Z,16.44
2023-05-17T04:15:07.396Z,16.48
2023-05-17T04:17:36.380Z,16.48
2023-05-17T04:20:06.563Z,16.48
2023-05-17T04:22:33.810Z,16.50
2023-05-17T04:25:00.972Z,16.51
2023-05-17T04:27:28.254Z,16.53
2023-05-17T04:29:55.436Z,16.57
2023-05-17T04:32:23.190Z,16.62
2023-05-17T04:34:50.055Z,16.65
2023-05-17T04:37:17.011Z,16.67
2023-05-17T04:39:44.529Z,16.70
2023-05-17T04:42:12.103Z,16.74
2023-05-17T04:44:41.964Z,16.78
2023-05-17T04:47:09.072Z,16.81
2023-05-17T04:49:36.238Z,16.84
2023-05-17T04:52:05.919Z,16.85
2023-05-17T04:54:34.115Z,16.85
2023-05-17T04:57:01.047Z,16.87
2023-05-17T04:59:47.522Z,16.88
2023-05-17T05:02:14.500Z,16.89
2023-05-17T05:04:41.625Z,16.90
2023-05-17T05:07:09.122Z,16.92
2023-05-17T05:09:35.971Z,16.95
2023-05-17T05:12:02.979Z,16.98
2023-05-17T05:14:31.287Z,17.04
2023-05-17T05:16:58.392Z,17.07
2023-05-17T05:19:25.494Z,17.11
2023-05-17T05:21:52.811Z,17.17
2023-05-17T05:24:19.682Z,17.21
2023-05-17T05:26:48.116Z,17.26
2023-05-17T05:29:16.698Z,17.31
2023-05-17T05:31:43.758Z,17.35
2023-05-17T05:34:10.968Z,17.42
2023-05-17T05:36:38.422Z,17.48
2023-05-17T05:39:07.260Z,17.55
2023-05-17T05:41:36.323Z,17.60
2023-05-17T05:44:03.590Z,17.67
2023-05-17T05:46:30.875Z,17.74
2023-05-17T05:48:58.334Z,17.80
2023-05-17T05:51:25.420Z,17.85
2023-05-17T05:53:52.272Z,17.92
2023-05-17T05:56:19.719Z,17.98
2023-05-17T05:58:46.816Z,18.04
2023-05-17T06:01:16.809Z,18.12
2023-05-17T06:03:43.674Z,18.21
2023-05-17T06:06:11.397Z,18.29
2023-05-17T06:08:38.394Z,18.37
2023-05-17T06:11:05.267Z,18.46
2023-05-17T06:13:34.942Z,18.56
2023-05-17T06:16:02.049Z,18.64
2023-05-17T06:18:28.989Z,18.74
2023-05-17T06:20:55.963Z,18.83
2023-05-17T06:23:23.176Z,18.94
2023-05-17T06:25:50.048Z,19.02
2023-05-17T06:28:17.468Z,19.09
2023-05-17T06:30:44.537Z,19.17
2023-05-17T06:33:11.498Z,19.26
2023-05-17T06:35:54.845Z,19.32
2023-05-17T06:38:23.485Z,19.42
2023-05-17T06:40:54.938Z,19.47
2023-05-17T06:43:22.169Z,19.50
2023-05-17T06:45:49.025Z,19.57
2023-05-17T06:48:16.275Z,19.62
2023-05-17T06:50:43.450Z,19.67
2023-05-17T06:53:10.355Z,19.76
2023-05-17T06:55:37.261Z,19.84
2023-05-17T06:58:04.079Z,19.93
2023-05-17T07:00:31.524Z,20.05
2023-05-17T07:02:58.797Z,20.14
2023-05-17T07:05:25.838Z,20.19
2023-05-17T07:07:52.885Z,20.30
2023-05-17T07:10:19.839Z,20.39
2023-05-17T07:12:47.125Z,20.53
2023-05-17T07:15:14.551Z,20.65
2023-05-17T07:17:41.469Z,20.74
2023-05-17T07:20:09.049Z,20.84
2023-05-17T07:22:37.305Z,20.93
2023-05-17T07:25:05.274Z,21.00
2023-05-17T07:27:32.364Z,21.10
2023-05-17T07:29:59.379Z,21.20
2023-05-17T07:32:26.376Z,21.28
2023-05-17T07:34:53.242Z,21.37
2023-05-17T07:37:20.630Z,21.43
2023-05-17T07:39:47.488Z,21.48
2023-05-17T07:42:14.320Z,21.52
2023-05-17T07:44:41.288Z,21.55
2023-05-17T07:47:08.149Z,21.58
2023-05-17T07:49:35.007Z,21.66
2023-05-17T07:52:02.978Z,21.77
2023-05-17T07:54:30.842Z,21.83
2023-05-17T07:56:57.736Z,21.85
2023-05-17T07:59:24.774Z,21.87
2023-05-17T08:01:52.095Z,21.87
2023-05-17T08:04:21.881Z,21.82
2023-05-17T08:06:50.192Z,21.74
2023-05-17T08:09:17.221Z,21.72
2023-05-17T08:11:46.220Z,21.76
2023-05-17T08:14:16.201Z,21.82
2023-05-17T08:16:43.831Z,21.87
2023-05-17T08:19:13.528Z,21.93
2023-05-17T08:21:42.056Z,21.97
2023-05-17T08:24:09.181Z,21.97
2023-05-17T08:26:36.249Z,21.95
2023-05-17T08:29:03.209Z,21.95
2023-05-17T08:31:31.736Z,21.93
2023-05-17T08:33:58.695Z,21.93
2023-05-17T08:36:26.116Z,21.92
2023-05-17T08:38:53.004Z,21.89
2023-05-17T08:41:20.930Z,21.94
2023-05-17T08:43:49.190Z,22.00
2023-05-17T08:46:16.458Z,22.05
2023-05-17T08:48:43.400Z,22.11
2023-05-17T08:51:12.200Z,22.10
2023-05-17T08:53:39.230Z,22.11
2023-05-17T08:56:07.213Z,22.15
2023-05-17T08:58:52.294Z,22.18
2023-05-17T09:01:25.791Z,22.23
2023-05-17T09:03:54.093Z,22.27
2023-05-17T09:06:21.683Z,22.30
2023-05-17T09:08:52.897Z,22.32
2023-05-17T09:11:35.890Z,22.30
2023-05-17T09:14:06.755Z,22.25
2023-05-17T09:16:37.712Z,22.20
2023-05-17T09:19:06.262Z,22.20
2023-05-17T09:21:34.286Z,22.22
2023-05-17T09:26:42.215Z,22.28
2023-05-17T09:29:13.345Z,22.37
2023-05-17T09:31:40.955Z,22.49
2023-05-17T09:34:08.613Z,22.57
2023-05-17T09:36:37.382Z,22.64
2023-05-17T09:39:10.827Z,22.80
2023-05-17T09:41:48.177Z,23.00
2023-05-17T09:44:15.969Z,23.25
2023-05-17T09:46:45.188Z,23.45
2023-05-17T09:49:12.847Z,23.56
2023-05-17T09:51:43.419Z,23.61
2023-05-17T09:54:10.547Z,23.64
2023-05-17T09:56:37.620Z,23.70
2023-05-17T09:59:05.713Z,23.78
2023-05-17T10:01:32.539Z,23.85
2023-05-17T10:04:01.420Z,23.88
2023-05-17T10:09:00.018Z,24.16
2023-05-17T10:11:28.906Z,24.38
2023-05-17T10:14:05.507Z,24.59
2023-05-17T10:16:34.403Z,24.69
2023-05-17T10:19:02.697Z,24.69
2023-05-17T10:21:32.812Z,24.79
2023-05-17T10:24:01.910Z,24.94
2023-05-17T10:26:29.619Z,25.01
2023-05-17T10:29:00.946Z,24.97
2023-05-17T10:31:33.389Z,24.93
2023-05-17T10:34:05.406Z,24.92
2023-05-17T10:36:32.424Z,24.92
2023-05-17T10:38:59.374Z,24.94
2023-05-17T10:41:31.441Z,25.00
2023-05-17T10:43:58.351Z,25.04
2023-05-17T10:46:25.260Z,24.99
2023-05-17T10:48:52.703Z,24.92
2023-05-17T10:51:24.739Z,24.84
2023-05-17T10:54:04.691Z,24.77
2023-05-17T10:56:32.058Z,24.72
2023-05-17T10:59:24.616Z,24.73
2023-05-17T11:02:05.023Z,24.73
2023-05-17T11:04:31.946Z,24.73
2023-05-17T11:07:25.194Z,24.68
2023-05-17T11:10:08.768Z,24.65
2023-05-17T11:12:40.795Z,24.70
2023-05-17T11:15:08.933Z,24.77
2023-05-17T11:17:51.785Z,24.81
2023-05-17T11:20:25.102Z,24.92
2023-05-17T11:22:59.078Z,25.02
2023-05-17T11:25:32.926Z,24.98
2023-05-17T11:28:00.371Z,24.93
2023-05-17T11:30:29.420Z,24.89
2023-05-17T11:33:05.720Z,24.94
2023-05-17T11:35:37.268Z,25.13
2023-05-17T11:38:24.576Z,25.27
2023-05-17T11:40:55.155Z,25.38
2023-05-17T11:43:25.913Z,25.50
2023-05-17T11:45:57.792Z,25.57
2023-05-17T11:48:26.165Z,25.58
2023-05-17T11:50:56.706Z,25.50
2023-05-17T11:53:25.153Z,25.45
2023-05-17T11:55:52.560Z,25.43
2023-05-17T11:58:26.272Z,25.45
2023-05-17T12:00:58.608Z,25.63
2023-05-17T12:03:26.563Z,25.80
2023-05-17T12:06:15.468Z,25.97
2023-05-17T12:08:46.064Z,26.13
2023-05-17T12:11:17.655Z,26.19
2023-05-17T12:13:46.876Z,26.20
2023-05-17T12:16:17.575Z,26.23
2023-05-17T12:18:48.278Z,26.34
2023-05-17T12:21:15.533Z,26.55
2023-05-17T12:23:43.879Z,26.75
2023-05-17T12:26:18.064Z,26.84
2023-05-17T12:28:58.489Z,26.94
2023-05-17T12:31:28.252Z,27.03
2023-05-17T12:33:55.307Z,27.08
2023-05-17T12:36:22.245Z,27.13
2023-05-17T12:38:49.313Z,27.17
2023-05-17T12:41:16.896Z,27.17
2023-05-17T12:43:45.031Z,27.13
2023-05-17T12:46:13.107Z,27.02
2023-05-17T12:48:41.726Z,26.92
2023-05-17T12:51:15.630Z,26.80
2023-05-17T12:53:49.357Z,26.66
2023-05-17T12:56:22.517Z,26.55
2023-05-17T12:59:14.416Z,26.44
2023-05-17T13:01:45.689Z,26.31
2023-05-17T13:04:13.148Z,26.23
2023-05-17T13:06:59.913Z,26.18
2023-05-17T13:09:30.804Z,26.14
2023-05-17T13:12:02.640Z,26.09
2023-05-17T13:14:39.583Z,26.00
2023-05-17T13:17:08.896Z,25.97
2023-05-17T13:19:36.378Z,25.96
2023-05-17T13:22:06.955Z,25.93
2023-05-17T13:24:34.716Z,25.88
2023-05-17T13:27:02.050Z,25.84
2023-05-17T13:29:38.687Z,25.84
2023-05-17T13:32:07.190Z,25.88
2023-05-17T13:34:33.986Z,25.92
2023-05-17T13:37:00.857Z,25.95
2023-05-17T13:39:27.738Z,26.02
2023-05-17T13:41:54.535Z,26.10
2023-05-17T13:44:21.320Z,26.18
2023-05-17T13:46:48.301Z,26.29
2023-05-17T13:49:15.362Z,26.43
2023-05-17T13:51:42.983Z,26.55
2023-05-17T13:54:10.666Z,26.67
2023-05-17T13:56:37.558Z,26.78
2023-05-17T13:59:04.501Z,26.86
2023-05-17T14:01:31.333Z,26.81
2023-05-17T14:03:58.226Z,26.73
2023-05-17T14:06:25.383Z,26.82
2023-05-17T14:08:54.137Z,26.89
2023-05-17T14:11:21.906Z,26.94
2023-05-17T14:13:48.983Z,27.00
2023-05-17T14:16:59.314Z,27.03
2023-05-17T14:19:26.227Z,26.97
2023-05-17T14:21:53.215Z,26.96
2023-05-17T14:24:20.092Z,26.92
2023-05-17T14:26:46.923Z,26.84
2023-05-17T14:29:13.792Z,26.76
2023-05-17T14:31:41.647Z,26.72
2023-05-17T14:34:08.506Z,26.68
2023-05-17T14:36:36.530Z,26.63
2023-05-17T14:39:04.208Z,26.61
2023-05-17T14:41:31.325Z,26.57
2023-05-17T14:43:58.101Z,26.51
2023-05-17T14:46:24.986Z,26.38
2023-05-17T14:48:52.355Z,26.24
2023-05-17T14:51:19.582Z,26.10
2023-05-17T14:53:46.708Z,26.00
2023-05-17T14:56:15.414Z,25.92
2023-05-17T14:58:42.393Z,25.82
2023-05-17T15:01:09.279Z,25.75
2023-05-17T15:03:36.209Z,25.68
2023-05-17T15:06:06.837Z,25.62
2023-05-17T15:08:36.015Z,25.57
2023-05-17T15:11:03.128Z,25.52
2023-05-17T15:13:30.067Z,25.45
2023-05-17T15:15:57.032Z,25.35
2023-05-17T15:18:24.014Z,25.28
2023-05-17T15:20:51.169Z,25.14
2023-05-17T15:23:18.082Z,24.97
2023-05-17T15:25:45.110Z,24.85
2023-05-17T15:28:12.332Z,24.83
2023-05-17T15:30:41.430Z,24.81
2023-05-17T15:33:08.431Z,24.74
2023-05-17T15:35:35.345Z,24.68
2023-05-17T15:38:05.610Z,24.64
2023-05-17T15:40:32.376Z,24.62
2023-05-17T15:42:59.444Z,24.58
2023-05-17T15:45:26.500Z,24.53
2023-05-17T15:47:54.031Z,24.48
2023-05-17T15:50:20.863Z,24.45
2023-05-17T15:52:49.003Z,24.38
2023-05-17T15:55:16.388Z,24.31
2023-05-17T15:57:43.905Z,24.26
2023-05-17T16:00:11.289Z,24.22
2023-05-17T16:02:38.123Z,24.18
2023-05-17T16:05:05.819Z,24.11
2023-05-17T16:07:32.664Z,24.05
2023-05-17T16:09:59.682Z,24.01
2023-05-17T16:12:26.815Z,23.96
2023-05-17T16:14:53.709Z,23.92
2023-05-17T16:17:20.628Z,23.88
2023-05-17T16:19:47.473Z,23.84
2023-05-17T16:22:15.361Z,23.80
2023-05-17T16:24:46.153Z,23.77
2023-05-17T16:27:13.281Z,23.75
2023-05-17T16:29:40.439Z,23.74
2023-05-17T16:32:08.285Z,23.72
2023-05-17T16:34:35.425Z,23.69
2023-05-17T16:37:02.559Z,23.64
2023-05-17T16:39:29.364Z,23.60
2023-05-17T16:41:56.271Z,23.56
2023-05-17T16:44:23.169Z,23.53
2023-05-17T16:46:50.675Z,23.50
2023-05-17T16:49:17.619Z,23.48
2023-05-17T16:51:45.525Z,23.45
2023-05-17T16:54:12.444Z,23.43
2023-05-17T16:56:39.318Z,23.39
2023-05-17T16:59:06.145Z,23.34
2023-05-17T17:01:33.118Z,23.28
2023-05-17T17:04:00.177Z,23.24
2023-05-17T17:06:27.252Z,23.16
2023-05-17T17:08:54.183Z,23.06
2023-05-17T17:11:23.903Z,22.97
2023-05-17T17:13:50.881Z,22.88
2023-05-17T17:16:17.777Z,22.78
2023-05-17T17:18:44.830Z,22.68
2023-05-17T17:21:11.596Z,22.62
2023-05-17T17:23:41.019Z,22.55
2023-05-17T17:26:08.773Z,22.49
2023-05-17T17:28:35.601Z,22.42
2023-05-17T17:31:02.453Z,22.35
2023-05-17T17:33:29.392Z,22.30
2023-05-17T17:35:56.449Z,22.25
2023-05-17T17:38:23.186Z,22.20
2023-05-17T17:40:50.008Z,22.16
2023-05-17T17:43:17.005Z,22.10
2023-05-17T17:45:46.447Z,22.04
2023-05-17T17:48:13.495Z,21.97
2023-05-17T17:50:40.524Z,21.91
2023-05-17T17:53:07.357Z,21.86
2023-05-17T17:55:34.136Z,21.80
2023-05-17T17:58:01.005Z,21.73
2023-05-17T18:00:27.994Z,21.65
2023-05-17T18:02:55.562Z,21.58
2023-05-17T18:05:22.370Z,21.53
2023-05-17T18:07:49.210Z,21.47
2023-05-17T18:10:16.240Z,21.43
2023-05-17T18:12:43.074Z,21.39
2023-05-17T18:15:11.432Z,21.35
2023-05-17T18:17:39.312Z,21.27
2023-05-17T18:20:07.040Z,21.19
2023-05-17T18:22:34.157Z,21.12
2023-05-17T18:25:01.044Z,21.05
2023-05-17T18:27:27.835Z,20.98
2023-05-17T18:29:54.696Z,20.92
2023-05-17T18:32:21.574Z,20.88
2023-05-17T18:34:48.436Z,20.84
2023-05-17T18:37:15.236Z,20.77
2023-05-17T18:39:42.032Z,20.72
2023-05-17T18:42:08.930Z,20.69
2023-05-17T18:44:36.138Z,20.64
2023-05-17T18:47:02.975Z,20.61
2023-05-17T18:49:29.827Z,20.59
2023-05-17T18:51:56.831Z,20.57
2023-05-17T18:54:23.673Z,20.56
2023-05-17T18:56:50.518Z,20.54
2023-05-17T18:59:17.360Z,20.52
2023-05-17T19:01:44.229Z,20.50
2023-05-17T19:04:11.269Z,20.47
2023-05-17T19:06:41.480Z,20.45
2023-05-17T19:09:08.648Z,20.41
2023-05-17T19:11:35.567Z,20.38
2023-05-17T19:14:02.625Z,20.36
2023-05-17T19:16:29.702Z,20.33
2023-05-17T19:18:56.578Z,20.28
2023-05-17T19:21:23.497Z,20.24
2023-05-17T19:23:50.836Z,20.22
2023-05-17T19:26:17.883Z,20.19
2023-05-17T19:28:44.726Z,20.15
2023-05-17T19:31:12.051Z,20.11
2023-05-17T19:33:39.458Z,20.06
2023-05-17T19:36:06.609Z,20.02
2023-05-17T19:38:33.633Z,19.98
2023-05-17T19:41:01.448Z,19.95
2023-05-17T19:43:28.343Z,19.92
2023-05-17T19:45:55.196Z,19.88
2023-05-17T19:48:24.160Z,19.86
2023-05-17T19:50:51.573Z,19.84
2023-05-17T19:53:18.414Z,19.82
2023-05-17T19:55:45.501Z,19.80
2023-05-17T19:58:12.321Z,19.79
2023-05-17T20:00:39.160Z,19.78
2023-05-17T20:03:06.177Z,19.76
2023-05-17T20:05:33.178Z,19.76
2023-05-17T20:08:02.765Z,19.74
2023-05-17T20:10:32.611Z,19.71
2023-05-17T20:12:59.811Z,19.68
2023-05-17T20:15:26.856Z,19.65
2023-05-17T20:17:53.880Z,19.60
2023-05-17T20:20:20.864Z,19.55
2023-05-17T20:22:48.180Z,19.51
2023-05-17T20:25:15.084Z,19.45
2023-05-17T20:27:41.872Z,19.39
2023-05-17T20:30:09.560Z,19.34
2023-05-17T20:32:36.348Z,19.28
2023-05-17T20:35:03.127Z,19.22
2023-05-17T20:37:29.938Z,19.17
2023-05-17T20:39:59.947Z,19.11
2023-05-17T20:42:28.331Z,19.04
2023-05-17T20:44:55.567Z,19.01
2023-05-17T20:47:22.666Z,18.97
2023-05-17T20:49:50.443Z,18.95
2023-05-17T20:52:31.399Z,18.94
2023-05-17T20:55:06.190Z,18.93
2023-05-17T20:57:32.952Z,18.94
2023-05-17T20:59:59.855Z,18.94
2023-05-17T21:02:26.891Z,18.95
2023-05-17T21:04:54.741Z,18.95
2023-05-17T21:07:22.498Z,18.95
2023-05-17T21:09:49.380Z,18.92
2023-05-17T21:12:16.187Z,18.88
2023-05-17T21:14:43.008Z,18.82
2023-05-17T21:17:10.490Z,18.78
2023-05-17T21:19:37.377Z,18.72
2023-05-17T21:22:05.481Z,18.66
2023-05-17T21:24:33.926Z,18.59
2023-05-17T21:27:01.358Z,18.54
2023-05-17T21:29:28.125Z,18.51
2023-05-17T21:31:55.041Z,18.46
2023-05-17T21:34:22.185Z,18.44
2023-05-17T21:36:49.028Z,18.44
2023-05-17T21:39:15.926Z,18.43
2023-05-17T21:41:42.834Z,18.43
2023-05-17T21:44:09.733Z,18.44
2023-05-17T21:46:37.936Z,18.44
2023-05-17T21:49:04.844Z,18.43
2023-05-17T21:51:31.861Z,18.43
2023-05-17T21:53:58.731Z,18.42
2023-05-17T21:56:25.928Z,18.43
2023-05-17T21:58:53.206Z,18.42
2023-05-17T22:01:24.301Z,18.42
2023-05-17T22:03:53.594Z,18.41
2023-05-17T22:06:22.020Z,18.40
2023-05-17T22:08:49.350Z,18.39
2023-05-17T22:11:18.474Z,18.39
2023-05-17T22:13:45.438Z,18.38
2023-05-17T22:16:14.014Z,18.38
2023-05-17T22:18:40.988Z,18.36
2023-05-17T22:21:09.032Z,18.35
2023-05-17T22:23:35.971Z,18.34
2023-05-17T22:26:02.859Z,18.30
2023-05-17T22:28:29.836Z,18.32
2023-05-17T22:30:57.667Z,18.31
2023-05-17T22:33:24.430Z,18.31
2023-05-17T22:35:54.165Z,18.30
2023-05-17T22:38:21.457Z,18.29
2023-05-17T22:40:48.264Z,18.28
2023-05-17T22:43:15.063Z,18.26
2023-05-17T22:45:42.607Z,18.25
2023-05-17T22:48:09.624Z,18.23
2023-05-17T22:50:36.867Z,18.22
2023-05-17T22:53:03.713Z,18.20
2023-05-17T22:55:30.791Z,18.18
2023-05-17T22:57:58.003Z,18.15
2023-05-17T23:00:25.618Z,18.13
2023-05-17T23:02:52.521Z,18.10
2023-05-17T23:05:19.438Z,18.07
2023-05-17T23:07:47.388Z,18.05
2023-05-17T23:10:15.592Z,18.01
2023-05-17T23:12:42.525Z,17.99
2023-05-17T23:15:10.657Z,17.97
2023-05-17T23:17:39.053Z,17.95
2023-05-17T23:20:10.490Z,17.92
2023-05-17T23:22:37.731Z,17.90
2023-05-17T23:25:06.121Z,17.88
2023-05-17T23:27:33.616Z,17.86
2023-05-17T23:30:01.150Z,17.85
2023-05-17T23:32:28.207Z,17.84
2023-05-17T23:34:58.546Z,17.82
2023-05-17T23:37:25.439Z,17.81
2023-05-17T23:39:52.375Z,17.78
2023-05-17T23:42:20.432Z,17.77
2023-05-17T23:44:49.012Z,17.75
2023-05-17T23:47:15.957Z,17.72
2023-05-17T23:49:42.792Z,17.70
2023-05-17T23:52:11.202Z,17.67
2023-05-17T23:54:39.095Z,17.63
2023-05-17T23:57:06.905Z,17.61
2023-05-17T23:59:34.125Z,17.59
